Time;durP1;ratioP1;P1;durP2;ratioP2;P2;SDS_P1;SDS_P2;PMS_P1;PMS_P2;Temp;Humidity;BMP_temperature;BMP_pressure;BME280_temperature;BME280_humidity;BME280_pressure;Samples;Min_cycle;Max_cycle;Signal;HPM_P1;HPM_P2
2022/12/27 00:01:17;;;;;;;1.70;0.50;;;;;;;3.21;100.00;100986.25;5025948;28;20213;-76
2022/12/27 00:03:44;;;;;;;2.47;0.70;;;;;;;3.20;100.00;100993.94;5021592;28;20425;-75
2022/12/27 00:06:14;;;;;;;3.70;1.00;;;;;;;3.18;100.00;100993.97;5022041;28;20199;-74
2022/12/27 00:08:41;;;;;;;3.17;0.90;;;;;;;3.20;100.00;100999.09;5022282;28;20625;-75
2022/12/27 00:11:09;;;;;;;2.83;1.03;;;;;;;3.19;100.00;101005.13;4996308;28;20391;-75
2022/12/27 00:13:35;;;;;;;5.80;1.40;;;;;;;3.21;100.00;101011.16;5019948;28;20224;-75
2022/12/27 00:16:04;;;;;;;4.87;1.30;;;;;;;3.18;100.00;101013.69;5018763;28;20692;-76
2022/12/27 00:18:30;;;;;;;4.83;0.80;;;;;;;3.15;100.00;101023.97;5018034;28;20215;-76
2022/12/27 00:20:57;;;;;;;2.07;0.77;;;;;;;3.10;100.00;101008.47;5021253;28;20199;-75
2022/12/27 00:23:25;;;;;;;1.90;0.53;;;;;;;3.06;100.00;101027.34;5019580;28;20653;-76
2022/12/27 00:25:52;;;;;;;2.03;0.70;;;;;;;3.01;100.00;101027.28;5019620;28;20516;-75
2022/12/27 00:28:18;;;;;;;5.83;0.93;;;;;;;2.92;100.00;101032.31;5021819;28;20200;-76
2022/12/27 00:30:45;;;;;;;6.00;0.63;;;;;;;2.83;100.00;101030.50;5001177;28;20215;-75
2022/12/27 00:33:11;;;;;;;5.10;1.10;;;;;;;2.77;100.00;101039.84;5018098;28;20226;-76
2022/12/27 00:35:38;;;;;;;5.30;1.00;;;;;;;2.68;100.00;101042.31;5019431;28;20207;-76
2022/12/27 00:38:05;;;;;;;2.20;0.70;;;;;;;2.60;100.00;101035.38;5019583;28;20209;-76
2022/12/27 00:40:33;;;;;;;3.47;0.73;;;;;;;2.55;100.00;101037.00;5014435;28;20207;-76
2022/12/27 00:42:59;;;;;;;3.47;1.03;;;;;;;2.47;100.00;101034.31;5018749;28;20212;-75
2022/12/27 00:45:26;;;;;;;4.57;0.97;;;;;;;2.41;100.00;101046.22;5016577;28;20220;-75
2022/12/27 00:47:52;;;;;;;3.20;1.00;;;;;;;2.40;100.00;101049.66;5016682;28;20203;-75
2022/12/27 00:50:18;;;;;;;5.40;1.33;;;;;;;2.32;100.00;101044.38;5022394;28;20391;-75
2022/12/27 00:52:45;;;;;;;3.60;0.90;;;;;;;2.32;100.00;101043.53;5020998;28;20231;-75
2022/12/27 00:55:11;;;;;;;2.23;0.70;;;;;;;2.29;100.00;101039.22;5018997;28;20941;-76
2022/12/27 00:57:39;;;;;;;4.93;1.10;;;;;;;2.23;100.00;101047.72;5020839;28;20204;-75
2022/12/27 01:00:09;;;;;;;5.40;1.03;;;;;;;2.18;100.00;101048.47;5017571;28;20287;-75
2022/12/27 01:02:35;;;;;;;5.73;1.17;;;;;;;2.11;100.00;101062.09;5018270;28;20219;-76
2022/12/27 01:05:02;;;;;;;3.70;0.80;;;;;;;2.08;100.00;101068.06;5017437;28;20208;-74
2022/12/27 01:07:28;;;;;;;4.20;0.97;;;;;;;2.07;100.00;101076.59;5012345;28;20196;-76
2022/12/27 01:09:54;;;;;;;2.77;1.00;;;;;;;2.08;100.00;101075.78;5024122;28;20203;-75
2022/12/27 01:12:21;;;;;;;5.50;0.97;;;;;;;2.09;100.00;101069.78;5027111;28;20216;-75
2022/12/27 01:14:48;;;;;;;2.60;0.90;;;;;;;2.12;100.00;101082.69;4999956;28;20413;-73
2022/12/27 01:17:15;;;;;;;0.77;0.57;;;;;;;2.13;100.00;101080.97;5028740;28;20191;-74
2022/12/27 01:19:41;;;;;;;5.63;1.47;;;;;;;2.15;100.00;101081.91;5028991;28;20203;-75
2022/12/27 01:22:08;;;;;;;0.77;0.63;;;;;;;2.16;100.00;101084.47;5024870;28;20235;-74
2022/12/27 01:24:34;;;;;;;4.80;0.90;;;;;;;2.17;100.00;101093.94;5022431;28;20200;-75
2022/12/27 01:27:00;;;;;;;7.40;0.90;;;;;;;2.18;100.00;101105.06;5010275;28;20870;-76
2022/12/27 01:29:27;;;;;;;4.23;1.10;;;;;;;2.18;100.00;101102.50;5029437;28;20207;-74
2022/12/27 01:31:55;;;;;;;2.57;1.13;;;;;;;2.22;100.00;101117.16;5024783;28;20231;-74
2022/12/27 01:34:21;;;;;;;5.33;1.17;;;;;;;2.24;100.00;101129.19;5005740;28;20207;-76
2022/12/27 01:36:49;;;;;;;4.03;1.13;;;;;;;2.26;100.00;101132.66;5023038;28;20203;-74
2022/12/27 01:39:16;;;;;;;4.60;0.83;;;;;;;2.31;100.00;101142.19;5005872;28;20200;-75
2022/12/27 01:44:49;;;;;;;2.43;1.07;;;;;;;2.36;100.00;101143.97;5024283;28;20641;-74
2022/12/27 01:47:21;;;;;;;5.03;1.30;;;;;;;2.36;100.00;101148.28;5026997;28;20196;-75
2022/12/27 01:49:57;;;;;;;4.93;1.20;;;;;;;2.34;100.00;101150.81;5020675;28;20208;-75
2022/12/27 01:52:27;;;;;;;3.77;0.90;;;;;;;2.30;100.00;101154.16;5009082;28;20247;-74
2022/12/27 01:54:55;;;;;;;3.93;1.10;;;;;;;2.27;100.00;101152.41;5024440;28;20230;-74
2022/12/27 01:57:22;;;;;;;1.33;0.73;;;;;;;2.27;100.00;101159.28;5020919;28;20203;-75
2022/12/27 01:59:49;;;;;;;4.80;1.27;;;;;;;2.26;100.00;101166.13;5020509;28;20217;-76
2022/12/27 02:02:15;;;;;;;6.13;1.13;;;;;;;2.26;100.00;101160.97;5023595;28;20438;-75
2022/12/27 02:04:43;;;;;;;8.63;1.20;;;;;;;2.23;100.00;101168.66;5018642;28;20204;-75
2022/12/27 02:07:10;;;;;;;7.30;1.00;;;;;;;2.23;100.00;101171.22;5004973;28;20731;-76
2022/12/27 02:09:42;;;;;;;3.80;1.17;;;;;;;2.27;100.00;101174.72;5021957;28;20195;-75
2022/12/27 02:12:10;;;;;;;8.07;1.20;;;;;;;2.21;100.00;101177.19;5023955;28;20224;-76
2022/12/27 02:14:40;;;;;;;1.20;0.90;;;;;;;2.15;100.00;101174.50;5023839;28;20367;-75
2022/12/27 02:17:11;;;;;;;2.77;0.90;;;;;;;2.10;100.00;101176.13;5021725;28;20205;-77
2022/12/27 02:19:48;;;;;;;3.03;0.83;;;;;;;2.03;100.00;101178.59;5021073;28;20771;-75
2022/12/27 02:25:51;;;;;;;13.50;1.87;;;;;;;2.00;100.00;101191.38;5018889;28;20482;-75
2022/12/27 02:28:32;;;;;;;2.93;0.93;;;;;;;2.06;100.00;101196.66;5026575;28;20206;-74
2022/12/27 02:31:07;;;;;;;3.83;0.77;;;;;;;2.09;100.00;101200.97;5008608;28;20200;-76
2022/12/27 02:33:38;;;;;;;3.27;1.17;;;;;;;2.07;100.00;101193.22;5025246;28;20234;-76
2022/12/27 02:36:10;;;;;;;2.80;0.90;;;;;;;2.06;100.00;101206.94;5009389;28;20205;-76
2022/12/27 02:38:41;;;;;;;2.57;0.93;;;;;;;2.07;100.00;101200.94;5030592;28;20310;-76
2022/12/27 02:55:25;;;;;;;3.20;0.83;;;;;;;2.04;100.00;101205.16;5018317;28;20253;-75
2022/12/27 02:58:03;;;;;;;4.23;1.00;;;;;;;2.03;100.00;101211.16;5023143;28;20308;-76
2022/12/27 03:03:49;;;;;;;6.30;1.10;;;;;;;1.98;100.00;101205.94;4980547;28;20254;-73
2022/12/27 03:06:39;;;;;;;3.80;0.80;;;;;;;1.96;100.00;101214.47;5018966;28;20215;-74
2022/12/27 03:15:53;;;;;;;3.17;1.23;;;;;;;1.91;100.00;101227.22;5020703;28;20734;-74
2022/12/27 03:18:05;;;;;;;7.17;0.93;;;;;;;1.74;100.00;101234.59;5017503;28;20198;-74
2022/12/27 03:26:07;;;;;;;4.37;1.07;;;;;;;1.55;100.00;101228.25;4995383;28;21404;-76
2022/12/27 03:34:34;;;;;;;5.03;1.20;;;;;;;1.27;100.00;101245.66;5014639;28;20216;-76
2022/12/27 03:40:02;;;;;;;4.13;0.97;;;;;;;1.17;100.00;101248.84;5017132;28;20715;-74
2022/12/27 03:46:32;;;;;;;4.20;1.30;;;;;;;1.09;100.00;101258.06;5013583;28;20192;-76
2022/12/27 03:48:09;;;;;;;3.57;1.17;;;;;;;1.08;100.00;101259.78;5019324;28;20208;-77
2022/12/27 03:50:42;;;;;;;5.97;1.47;;;;;;;1.00;100.00;101268.13;5019388;28;20201;-77
2022/12/27 03:53:13;;;;;;;6.47;1.17;;;;;;;0.95;100.00;101260.34;5008583;28;20228;-76
2022/12/27 03:55:40;;;;;;;6.63;1.67;;;;;;;0.90;100.00;101270.50;5017263;28;20278;-75
2022/12/27 03:58:07;;;;;;;3.17;1.00;;;;;;;0.86;100.00;101268.69;5017224;28;20200;-76
2022/12/27 04:00:33;;;;;;;11.20;1.03;;;;;;;0.79;100.00;101279.63;5002084;28;20303;-75
2022/12/27 04:02:59;;;;;;;13.33;1.30;;;;;;;0.82;100.00;101283.97;5020570;28;20231;-75
2022/12/27 04:05:26;;;;;;;3.40;1.27;;;;;;;0.78;100.00;101283.03;5018900;28;20192;-77
2022/12/27 04:35:16;;;;;;;1.77;0.90;;;;;;;0.74;100.00;101302.63;5019544;28;20307;-76
2022/12/27 04:37:43;;;;;;;5.83;1.40;;;;;;;0.76;100.00;101305.25;5011414;28;20283;-75
2022/12/27 04:56:37;;;;;;;5.13;1.27;;;;;;;0.78;100.00;101311.28;5012815;28;20278;-76
2022/12/27 05:02:04;;;;;;;2.07;1.33;;;;;;;0.81;100.00;101313.03;5013174;28;20735;-75
2022/12/27 05:04:31;;;;;;;9.73;1.70;;;;;;;0.85;100.00;101320.88;5010502;28;20201;-75
2022/12/27 05:13:58;;;;;;;3.20;1.50;;;;;;;0.87;100.00;101310.63;4994363;28;20467;-75
2022/12/27 05:15:25;;;;;;;2.37;1.30;;;;;;;0.97;100.00;101320.31;5005513;28;20220;-76
2022/12/27 05:17:52;;;;;;;3.27;1.63;;;;;;;1.03;100.00;101324.72;5014317;28;20200;-74
2022/12/27 05:20:18;;;;;;;3.00;1.50;;;;;;;1.10;100.00;101326.59;5014802;28;20216;-75
2022/12/27 05:25:35;;;;;;;3.67;1.60;;;;;;;1.12;100.00;101325.78;5013056;28;20535;-72
2022/12/27 05:28:02;;;;;;;4.23;1.93;;;;;;;1.20;100.00;101332.84;5018129;28;20274;-72
2022/12/27 05:30:33;;;;;;;2.53;1.77;;;;;;;1.30;100.00;101339.91;5013850;28;20215;-72
2022/12/27 05:32:59;;;;;;;5.00;1.67;;;;;;;1.32;100.00;101343.41;5020186;28;20219;-72
2022/12/27 05:35:26;;;;;;;5.63;1.70;;;;;;;1.31;100.00;101339.94;5023933;28;20195;-73
2022/12/27 05:37:53;;;;;;;4.33;1.43;;;;;;;1.34;100.00;101344.31;5015979;28;20218;-72
2022/12/27 05:40:20;;;;;;;6.23;1.97;;;;;;;1.36;100.00;101345.19;5021193;28;20210;-72
2022/12/27 05:42:46;;;;;;;1.77;1.50;;;;;;;1.41;100.00;101353.03;5013149;28;20231;-72
2022/12/27 05:45:13;;;;;;;8.90;1.53;;;;;;;1.43;100.00;101362.50;5020980;28;20215;-72
2022/12/27 05:47:40;;;;;;;8.93;2.30;;;;;;;1.39;100.00;101358.13;5021461;28;20491;-72
2022/12/27 05:50:08;;;;;;;3.23;1.37;;;;;;;1.32;100.00;101366.53;5022465;28;20197;-72
2022/12/27 05:52:34;;;;;;;3.60;1.70;;;;;;;1.30;100.00;101361.34;5020115;28;20235;-72
2022/12/27 05:55:01;;;;;;;3.90;1.70;;;;;;;1.28;100.00;101357.00;5018524;28;20239;-72
2022/12/27 05:57:27;;;;;;;8.13;2.03;;;;;;;1.29;100.00;101362.16;5021187;28;20679;-72
2022/12/27 05:59:54;;;;;;;3.67;1.47;;;;;;;1.26;100.00;101367.22;5017543;28;20548;-72
2022/12/27 06:02:20;;;;;;;6.90;1.70;;;;;;;1.25;100.00;101365.50;5022363;28;20652;-72
2022/12/27 06:04:48;;;;;;;2.03;1.50;;;;;;;1.25;100.00;101367.19;5015225;28;20223;-72
2022/12/27 06:07:15;;;;;;;4.87;1.10;;;;;;;1.20;100.00;101368.81;5025081;28;20207;-72
2022/12/27 06:09:41;;;;;;;1.60;1.20;;;;;;;1.19;100.00;101377.34;5019472;28;20230;-72
2022/12/27 06:12:07;;;;;;;1.70;1.43;;;;;;;1.20;100.00;101379.09;5019702;28;20579;-72
2022/12/27 06:14:34;;;;;;;2.00;1.40;;;;;;;1.24;100.00;101381.75;5020924;28;20222;-72
2022/12/27 06:17:00;;;;;;;5.57;1.47;;;;;;;1.28;100.00;101387.81;5018810;28;20291;-72
2022/12/27 06:19:27;;;;;;;7.80;1.33;;;;;;;1.30;100.00;101399.88;5017628;28;20208;-72
2022/12/27 06:21:54;;;;;;;5.30;1.60;;;;;;;1.32;100.00;101405.94;5021921;28;20238;-72
2022/12/27 06:24:21;;;;;;;4.20;1.43;;;;;;;1.33;100.00;101411.94;5017106;28;20600;-72
2022/12/27 06:26:47;;;;;;;4.53;1.67;;;;;;;1.35;100.00;101409.41;5018188;28;20212;-72
2022/12/27 06:29:14;;;;;;;7.77;1.43;;;;;;;1.32;100.00;101403.38;5023065;28;20302;-72
2022/12/27 06:31:40;;;;;;;5.13;1.30;;;;;;;1.34;100.00;101400.84;5015038;28;20203;-72
2022/12/27 06:34:06;;;;;;;4.60;1.77;;;;;;;1.37;100.00;101400.03;5017320;28;20651;-72
2022/12/27 06:36:33;;;;;;;3.70;1.17;;;;;;;1.35;100.00;101392.28;5018911;28;20215;-72
2022/12/27 06:39:02;;;;;;;4.77;1.30;;;;;;;1.35;100.00;101391.41;5018576;28;20212;-72
2022/12/27 06:41:28;;;;;;;6.13;1.77;;;;;;;1.35;100.00;101393.97;5023608;28;20215;-72
2022/12/27 06:43:56;;;;;;;2.47;1.50;;;;;;;1.37;100.00;101397.44;5018501;28;20229;-72
2022/12/27 06:46:24;;;;;;;2.63;1.20;;;;;;;1.38;100.00;101396.63;5015926;28;20287;-72
2022/12/27 06:48:50;;;;;;;3.10;1.10;;;;;;;1.43;100.00;101416.47;5014721;28;21036;-72
2022/12/27 06:51:21;;;;;;;3.87;1.47;;;;;;;1.47;100.00;101405.41;5020431;28;20196;-72
2022/12/27 06:53:47;;;;;;;4.53;1.30;;;;;;;1.50;100.00;101412.34;5018843;28;20223;-72
2022/12/27 06:56:16;;;;;;;5.43;1.20;;;;;;;1.55;100.00;101417.56;5018660;28;20196;-72
2022/12/27 06:58:44;;;;;;;3.53;1.27;;;;;;;1.53;100.00;101415.00;5035165;28;20204;-72
2022/12/27 07:01:11;;;;;;;5.20;1.37;;;;;;;1.55;100.00;101417.56;5020938;28;20253;-72
2022/12/27 07:03:38;;;;;;;2.03;1.37;;;;;;;1.56;100.00;101422.75;5014612;28;20242;-72
2022/12/27 07:06:05;;;;;;;3.13;1.30;;;;;;;1.60;100.00;101434.88;5016569;28;20211;-75
2022/12/27 07:08:32;;;;;;;1.23;1.00;;;;;;;1.63;100.00;101434.91;5019873;28;20473;-74
2022/12/27 07:11:00;;;;;;;4.03;1.13;;;;;;;1.66;100.00;101447.00;5016368;28;20199;-74
2022/12/27 07:13:28;;;;;;;10.27;1.50;;;;;;;1.64;100.00;101453.81;5020727;28;20224;-75
2022/12/27 07:15:54;;;;;;;2.83;1.30;;;;;;;1.64;100.00;101446.09;5018580;28;20534;-75
2022/12/27 07:18:20;;;;;;;6.03;1.17;;;;;;;1.67;100.00;101448.72;5018618;28;20695;-75
2022/12/27 07:20:47;;;;;;;3.67;1.20;;;;;;;1.66;100.00;101447.84;5018651;28;20680;-75
2022/12/27 07:23:14;;;;;;;2.10;1.00;;;;;;;1.62;100.00;101452.88;5018964;28;20612;-75
2022/12/27 07:25:40;;;;;;;4.20;1.30;;;;;;;1.60;100.00;101447.72;5018526;28;20583;-75
2022/12/27 07:28:07;;;;;;;6.07;1.47;;;;;;;1.56;100.00;101461.31;5018196;28;20196;-75
2022/12/27 07:30:34;;;;;;;5.37;1.50;;;;;;;1.56;100.00;101463.03;5019877;28;20192;-75
2022/12/27 07:33:01;;;;;;;2.60;1.20;;;;;;;1.59;100.00;101466.53;5017042;28;20315;-75
2022/12/27 07:35:27;;;;;;;4.00;1.50;;;;;;;1.65;100.00;101473.53;5017360;28;20350;-75
2022/12/27 07:37:53;;;;;;;2.63;1.10;;;;;;;1.70;100.00;101474.50;5018086;28;20208;-75
2022/12/27 07:40:20;;;;;;;3.07;1.30;;;;;;;1.73;100.00;101468.59;5017465;28;20204;-75
2022/12/27 07:42:47;;;;;;;2.80;1.27;;;;;;;1.78;100.00;101469.56;5016414;28;20700;-75
2022/12/27 07:45:13;;;;;;;2.50;1.17;;;;;;;1.76;100.00;101479.81;5017310;28;20196;-75
2022/12/27 07:47:41;;;;;;;4.40;1.47;;;;;;;1.81;100.00;101482.47;5018478;28;20206;-75
2022/12/27 07:50:08;;;;;;;6.00;1.50;;;;;;;1.82;100.00;101491.94;5018896;28;20199;-75
2022/12/27 07:52:34;;;;;;;2.63;1.23;;;;;;;1.84;100.00;101487.69;5023505;28;20219;-75
2022/12/27 07:55:00;;;;;;;3.27;1.10;;;;;;;1.84;100.00;101498.84;5018688;28;20216;-75
2022/12/27 07:57:28;;;;;;;1.47;1.03;;;;;;;1.86;100.00;101491.16;5024138;28;20211;-75
2022/12/27 07:59:54;;;;;;;3.47;1.13;;;;;;;1.86;100.00;101496.31;5018492;28;20644;-75
2022/12/27 08:02:20;;;;;;;6.03;1.60;;;;;;;1.87;100.00;101503.19;5021930;28;20584;-75
2022/12/27 08:04:48;;;;;;;3.83;1.30;;;;;;;1.90;100.00;101505.84;5011083;28;20204;-75
2022/12/27 08:07:16;;;;;;;2.43;1.40;;;;;;;1.89;100.00;101511.81;5012746;28;20212;-75
2022/12/27 08:09:45;;;;;;;5.80;0.90;;;;;;;1.85;100.00;101513.44;5019622;28;20213;-75
2022/12/27 08:12:13;;;;;;;4.00;1.20;;;;;;;1.82;100.00;101503.06;5019744;28;20204;-75
2022/12/27 08:14:39;;;;;;;4.57;1.17;;;;;;;1.83;100.00;101511.66;5018590;28;20330;-75
2022/12/27 08:17:14;;;;;;;4.43;1.60;;;;;;;1.84;100.00;101506.56;5016785;28;20211;-75
2022/12/27 08:19:40;;;;;;;2.77;1.13;;;;;;;1.89;100.00;101515.25;5017336;28;20196;-75
2022/12/27 08:22:09;;;;;;;3.13;1.20;;;;;;;1.94;100.00;101515.38;5023117;28;20587;-75
2022/12/27 08:24:37;;;;;;;7.17;1.83;;;;;;;1.96;100.00;101523.97;5021145;28;20207;-75
2022/12/27 08:27:03;;;;;;;4.23;1.57;;;;;;;1.95;100.00;101527.38;5021624;28;20260;-75
2022/12/27 08:29:30;;;;;;;2.87;1.30;;;;;;;1.96;100.00;101526.56;5023855;28;20212;-75
2022/12/27 08:31:56;;;;;;;5.03;0.97;;;;;;;1.98;100.00;101531.75;5015383;28;20196;-75
2022/12/27 08:34:22;;;;;;;3.67;1.10;;;;;;;2.00;100.00;101523.22;5014845;28;20224;-75
2022/12/27 08:36:49;;;;;;;1.47;1.20;;;;;;;2.06;100.00;101535.38;5020974;28;20203;-75
2022/12/27 08:39:17;;;;;;;1.47;1.10;;;;;;;2.04;100.00;101544.72;5019497;28;20509;-73
2022/12/27 08:41:45;;;;;;;2.40;1.40;;;;;;;2.04;100.00;101539.59;5016646;28;20215;-72
2022/12/27 08:44:12;;;;;;;4.00;1.30;;;;;;;2.04;100.00;101531.88;5018721;28;20223;-73
2022/12/27 08:46:39;;;;;;;5.50;1.27;;;;;;;2.03;100.00;101532.72;5022420;28;20278;-73
2022/12/27 08:49:05;;;;;;;1.53;1.00;;;;;;;1.98;100.00;101542.03;5020495;28;20649;-72
2022/12/27 08:51:32;;;;;;;5.70;1.47;;;;;;;1.85;100.00;101538.31;5018169;28;20206;-73
2022/12/27 08:53:59;;;;;;;4.23;1.30;;;;;;;1.79;100.00;101533.84;5017690;28;20238;-73
2022/12/27 08:56:26;;;;;;;4.70;1.63;;;;;;;1.70;100.00;101525.94;5019519;28;20200;-73
2022/12/27 08:58:53;;;;;;;3.93;1.33;;;;;;;1.67;100.00;101524.16;5014241;28;20227;-73
2022/12/27 09:01:21;;;;;;;4.87;1.33;;;;;;;1.73;100.00;101527.72;5019471;28;20205;-73
2022/12/27 09:03:48;;;;;;;2.87;1.20;;;;;;;1.82;100.00;101522.78;5012460;28;20723;-72
2022/12/27 09:06:17;;;;;;;3.40;1.30;;;;;;;1.88;100.00;101528.06;5020739;28;20242;-73
2022/12/27 09:08:45;;;;;;;2.07;1.30;;;;;;;2.01;100.00;101524.09;5021281;28;20207;-72
2022/12/27 09:11:13;;;;;;;3.10;1.20;;;;;;;2.18;100.00;101527.03;5012820;28;20287;-73
2022/12/27 09:13:41;;;;;;;3.57;1.50;;;;;;;2.31;100.00;101534.22;5020218;28;20212;-73
2022/12/27 09:16:09;;;;;;;2.37;1.10;;;;;;;2.38;100.00;101535.22;5020988;28;20215;-72
2022/12/27 09:18:36;;;;;;;6.00;1.47;;;;;;;2.40;100.00;101547.28;5016179;28;20202;-73
2022/12/27 09:21:04;;;;;;;3.23;0.93;;;;;;;2.42;100.00;101549.91;5018144;28;20596;-73
2022/12/27 09:23:31;;;;;;;1.30;1.10;;;;;;;2.46;100.00;101536.25;5029171;28;20231;-73
2022/12/27 09:25:57;;;;;;;3.80;1.30;;;;;;;2.47;100.00;101533.72;5014874;28;20350;-72
2022/12/27 09:28:23;;;;;;;4.23;1.50;;;;;;;2.52;100.00;101532.97;5017530;28;20212;-73
2022/12/27 09:30:51;;;;;;;2.03;1.00;;;;;;;2.55;100.00;101531.31;5017056;28;20471;-73
2022/12/27 09:33:17;;;;;;;6.03;1.53;;;;;;;2.57;100.00;101524.50;5020538;28;20220;-72
2022/12/27 09:35:44;;;;;;;2.97;1.10;;;;;;;2.60;100.00;101519.41;5025928;28;20226;-73
2022/12/27 09:38:10;;;;;;;2.37;1.13;;;;;;;2.64;100.00;101520.34;5015318;28;20192;-74
2022/12/27 09:40:37;;;;;;;4.07;1.40;;;;;;;2.68;100.00;101519.56;5018090;28;20200;-73
2022/12/27 09:43:07;;;;;;;2.33;1.30;;;;;;;2.71;100.00;101521.31;5015029;28;20220;-73
2022/12/27 09:45:40;;;;;;;1.40;1.30;;;;;;;2.75;100.00;101518.84;5020136;28;20282;-73
2022/12/27 09:48:13;;;;;;;4.23;1.40;;;;;;;2.79;100.00;101520.63;5020336;28;20211;-76
2022/12/27 09:50:47;;;;;;;5.30;1.50;;;;;;;2.80;100.00;101532.69;5019556;28;20204;-73
2022/12/27 09:53:18;;;;;;;3.67;1.40;;;;;;;2.82;100.00;101517.25;5019382;28;20219;-73
2022/12/27 09:55:48;;;;;;;3.00;1.40;;;;;;;2.84;100.00;101524.16;5018232;28;20702;-74
2022/12/27 09:58:37;;;;;;;1.77;1.27;;;;;;;2.87;100.00;101519.91;5022432;28;20238;-73
2022/12/27 10:01:18;;;;;;;4.73;1.23;;;;;;;2.89;100.00;101518.25;5012165;28;20726;-73
2022/12/27 10:03:46;;;;;;;2.23;1.00;;;;;;;2.88;100.00;101519.94;5018161;28;20226;-75
2022/12/27 10:06:26;;;;;;;5.47;1.20;;;;;;;2.91;100.00;101530.31;5015362;28;20203;-74
2022/12/27 10:09:00;;;;;;;4.07;1.27;;;;;;;2.96;100.00;101535.56;5021634;28;20207;-73
2022/12/27 10:11:37;;;;;;;4.47;1.30;;;;;;;3.01;100.00;101541.69;5018205;28;20191;-73
2022/12/27 10:14:15;;;;;;;3.10;1.30;;;;;;;3.09;100.00;101546.97;5020833;28;20221;-73
2022/12/27 10:16:50;;;;;;;3.40;1.30;;;;;;;3.14;100.00;101543.66;5022291;28;20215;-73
2022/12/27 10:19:29;;;;;;;1.77;1.10;;;;;;;3.17;100.00;101542.84;5027324;28;20196;-73
2022/12/27 10:22:09;;;;;;;3.13;1.37;;;;;;;3.20;100.00;101546.34;5023501;28;20201;-73
2022/12/27 10:24:40;;;;;;;3.40;1.30;;;;;;;3.23;100.00;101546.38;5028710;28;20693;-74
2022/12/27 10:27:14;;;;;;;1.60;1.10;;;;;;;3.32;100.00;101544.84;5025671;28;20613;-75
2022/12/27 10:29:41;;;;;;;6.27;1.40;;;;;;;3.39;100.00;101554.41;5020565;28;20193;-74
2022/12/27 10:32:11;;;;;;;3.03;1.33;;;;;;;3.43;100.00;101551.06;5025235;28;20219;-74
2022/12/27 10:34:38;;;;;;;2.03;1.10;;;;;;;3.47;100.00;101547.69;5028693;28;20205;-75
2022/12/27 10:37:05;;;;;;;2.03;1.50;;;;;;;3.56;100.00;101550.44;5039457;28;20215;-74
2022/12/27 10:39:35;;;;;;;3.77;1.50;;;;;;;3.72;100.00;101554.13;5024937;28;20200;-74
2022/12/27 10:42:12;;;;;;;3.07;1.23;;;;;;;3.85;100.00;101557.78;5019361;28;20535;-74
2022/12/27 10:44:38;;;;;;;7.00;1.30;;;;;;;3.98;100.00;101569.19;5029047;28;20203;-74
2022/12/27 10:47:05;;;;;;;1.93;1.13;;;;;;;4.02;100.00;101550.31;5022841;28;20588;-74
2022/12/27 10:49:33;;;;;;;1.93;1.23;;;;;;;4.03;100.00;101556.34;5023589;28;20208;-75
2022/12/27 10:52:10;;;;;;;3.67;1.27;;;;;;;3.99;100.00;101558.00;5019200;28;20506;-75
2022/12/27 10:54:50;;;;;;;2.87;1.27;;;;;;;3.98;100.00;101549.41;5025071;28;20195;-74
2022/12/27 10:57:24;;;;;;;1.60;1.03;;;;;;;3.99;100.00;101550.25;5023943;28;20203;-74
2022/12/27 11:00:14;;;;;;;3.33;1.03;;;;;;;4.01;100.00;101558.91;5024107;28;20203;-74
2022/12/27 11:02:49;;;;;;;2.63;1.23;;;;;;;4.01;100.00;101553.75;5021372;28;20233;-74
2022/12/27 11:05:20;;;;;;;1.13;0.80;;;;;;;4.05;100.00;101555.53;5015812;28;20211;-74
2022/12/27 11:07:48;;;;;;;2.20;1.13;;;;;;;4.18;100.00;101556.59;5020962;28;20201;-74
2022/12/27 11:10:18;;;;;;;4.10;1.13;;;;;;;4.28;100.00;101555.03;5022599;28;20208;-75
2022/12/27 11:12:55;;;;;;;2.60;0.93;;;;;;;4.25;100.00;101549.81;5019599;28;20224;-75
2022/12/27 11:15:21;;;;;;;1.63;1.00;;;;;;;4.25;100.00;101552.38;5020000;28;20224;-75
2022/12/27 11:17:51;;;;;;;3.47;1.50;;;;;;;4.37;100.00;101547.41;5026359;28;20281;-75
2022/12/27 11:20:24;;;;;;;1.17;1.00;;;;;;;4.59;100.00;101558.91;5020710;28;20563;-75
2022/12/27 11:22:51;;;;;;;3.13;1.40;;;;;;;4.70;100.00;101553.88;5027334;28;20232;-75
2022/12/27 11:25:20;;;;;;;3.83;1.60;;;;;;;4.73;100.00;101549.63;5005411;28;20220;-74
2022/12/27 11:27:49;;;;;;;4.53;1.27;;;;;;;4.77;100.00;101547.03;5008476;28;20200;-74
2022/12/27 11:30:26;;;;;;;2.33;1.00;;;;;;;4.72;100.00;101547.88;5006483;28;20691;-74
2022/12/27 11:32:53;;;;;;;2.00;1.13;;;;;;;4.68;100.00;101548.69;5004415;28;20235;-74
2022/12/27 11:35:22;;;;;;;1.93;1.30;;;;;;;4.66;100.00;101542.63;5004047;28;20592;-74
2022/12/27 11:37:50;;;;;;;2.40;1.30;;;;;;;4.61;100.00;101541.72;5002112;28;20205;-74
2022/12/27 11:40:26;;;;;;;3.03;1.30;;;;;;;4.55;100.00;101542.47;5003458;28;20201;-74
2022/12/27 11:43:03;;;;;;;1.47;1.27;;;;;;;4.55;100.00;101544.19;5006241;28;20228;-74
2022/12/27 11:45:38;;;;;;;4.07;1.10;;;;;;;4.51;100.00;101550.19;5004358;28;20914;-74
2022/12/27 11:48:14;;;;;;;3.80;1.83;;;;;;;4.44;100.00;101546.63;5007207;28;20752;-73
2022/12/27 11:50:52;;;;;;;2.03;1.50;;;;;;;4.41;100.00;101543.16;5005756;28;20617;-74
2022/12/27 11:53:41;;;;;;;2.07;1.00;;;;;;;4.42;100.00;101550.06;4998672;28;20228;-74
2022/12/27 11:56:26;;;;;;;3.70;1.53;;;;;;;4.48;100.00;101544.97;5001862;28;20243;-74
2022/12/27 11:59:13;;;;;;;4.10;1.40;;;;;;;4.51;100.00;101550.19;5006850;28;20493;-74
2022/12/27 12:02:04;;;;;;;1.83;1.00;;;;;;;4.45;100.00;101553.56;5008284;28;20200;-74
2022/12/27 12:05:00;;;;;;;3.77;1.40;;;;;;;4.49;100.00;101559.63;5018411;28;20711;-74
2022/12/27 12:07:44;;;;;;;3.87;1.57;;;;;;;4.57;100.00;101560.56;5001313;28;20208;-73
2022/12/27 12:10:21;;;;;;;1.10;0.90;;;;;;;4.66;100.00;101557.25;5009558;28;20208;-74
2022/12/27 12:13:08;;;;;;;2.93;1.10;;;;;;;4.65;100.00;101553.81;5004765;28;20200;-74
2022/12/27 12:15:48;;;;;;;1.93;1.17;;;;;;;4.76;100.00;101558.25;5017764;28;20228;-74
2022/12/27 12:18:31;;;;;;;2.30;1.13;;;;;;;4.78;100.00;101561.72;5005678;28;20208;-74
2022/12/27 12:21:24;;;;;;;2.60;1.50;;;;;;;4.78;100.00;101570.31;5005612;28;20344;-74
2022/12/27 12:24:07;;;;;;;3.37;1.47;;;;;;;4.66;100.00;101565.00;5005693;28;20263;-74
2022/12/27 12:26:43;;;;;;;5.37;1.30;;;;;;;4.58;100.00;101570.06;5006301;28;20196;-74
2022/12/27 12:29:30;;;;;;;2.30;1.20;;;;;;;4.57;100.00;101572.63;5019799;28;20235;-74
2022/12/27 12:32:33;;;;;;;1.67;1.00;;;;;;;4.62;100.00;101582.16;5006138;28;20211;-74
2022/12/27 12:35:23;;;;;;;2.40;1.13;;;;;;;4.79;100.00;101560.88;5005134;28;20426;-74
2022/12/27 12:38:03;;;;;;;4.33;1.90;;;;;;;4.88;100.00;101563.56;5002038;28;20725;-74
2022/12/27 12:40:41;;;;;;;5.43;2.83;;;;;;;4.94;100.00;101573.97;5013115;28;20941;-74
2022/12/27 12:43:25;;;;;;;2.93;1.07;;;;;;;4.95;100.00;101573.13;4986396;28;20228;-73
2022/12/27 12:46:01;;;;;;;2.87;1.37;;;;;;;4.87;100.00;101567.88;4993965;28;20375;-74
2022/12/27 12:48:54;;;;;;;1.30;1.20;;;;;;;4.81;100.00;101574.69;5004776;28;20577;-73
2022/12/27 12:51:34;;;;;;;1.37;0.90;;;;;;;4.72;100.00;101578.88;5010013;28;20621;-74
2022/12/27 12:54:12;;;;;;;7.20;1.50;;;;;;;4.71;100.00;101584.91;5004417;28;20212;-74
2022/12/27 12:57:05;;;;;;;3.27;1.30;;;;;;;4.62;100.00;101579.59;5003747;28;20319;-73
2022/12/27 12:59:52;;;;;;;3.57;1.23;;;;;;;4.58;100.00;101577.81;4999354;28;20213;-74
2022/12/27 13:02:41;;;;;;;4.23;1.30;;;;;;;4.50;100.00;101587.16;5008997;28;20197;-74
2022/12/27 13:05:16;;;;;;;1.87;1.20;;;;;;;4.47;100.00;101581.97;5006042;28;20213;-74
2022/12/27 13:08:05;;;;;;;2.07;1.23;;;;;;;4.44;100.00;101576.75;5004387;28;20197;-73
2022/12/27 13:11:12;;;;;;;3.47;1.13;;;;;;;4.32;100.00;101586.06;5001032;28;20744;-74
2022/12/27 13:13:54;;;;;;;2.23;1.30;;;;;;;4.31;100.00;101594.66;5002753;28;20224;-74
2022/12/27 13:16:37;;;;;;;3.50;1.53;;;;;;;4.26;100.00;101585.97;4996746;28;20239;-74
2022/12/27 13:19:27;;;;;;;1.83;1.03;;;;;;;4.24;100.00;101582.50;5003899;28;20343;-73
2022/12/27 13:22:04;;;;;;;1.00;0.80;;;;;;;4.24;100.00;101591.94;5004712;28;20228;-75
2022/12/27 13:24:42;;;;;;;2.50;1.27;;;;;;;4.19;100.00;101586.72;5017943;28;20433;-74